createdAt,value
2022-12-03T00:01:40.140Z,29.10
2022-12-03T00:04:26.912Z,32.90
2022-12-03T00:07:13.523Z,39.10
2022-12-03T00:10:00.115Z,43.20
2022-12-03T00:12:46.843Z,48.50
2022-12-03T00:15:33.468Z,32.80
2022-12-03T00:18:20.439Z,35.20
2022-12-03T00:21:06.981Z,33.60
2022-12-03T00:23:53.782Z,35.10
2022-12-03T00:26:40.509Z,39.70
2022-12-03T00:29:27.113Z,30.00
2022-12-03T00:32:14.280Z,36.70
2022-12-03T00:35:01.698Z,30.90
2022-12-03T00:37:49.232Z,38.60
2022-12-03T00:40:35.977Z,30.50
2022-12-03T00:43:22.920Z,40.40
2022-12-03T00:46:09.636Z,35.20
2022-12-03T00:48:56.353Z,36.90
2022-12-03T00:51:43.050Z,29.90
2022-12-03T00:54:32.070Z,40.10
2022-12-03T00:57:19.333Z,41.50
2022-12-03T01:00:06.356Z,33.40
2022-12-03T01:02:53.833Z,40.00
2022-12-03T01:05:41.794Z,39.50
2022-12-03T01:08:29.071Z,35.50
2022-12-03T01:11:34.448Z,36.20
2022-12-03T01:14:21.579Z,35.00
2022-12-03T01:17:08.337Z,46.50
2022-12-03T01:19:55.402Z,33.10
2022-12-03T01:22:42.129Z,35.90
2022-12-03T01:25:28.988Z,35.80
2022-12-03T01:28:15.931Z,36.10
2022-12-03T01:31:21.461Z,30.10
2022-12-03T01:34:08.450Z,34.20
2022-12-03T01:36:55.085Z,30.40
2022-12-03T01:39:41.891Z,34.20
2022-12-03T01:42:30.218Z,27.90
2022-12-03T01:45:22.457Z,28.80
2022-12-03T01:48:09.840Z,29.70
2022-12-03T01:50:56.674Z,30.30
2022-12-03T01:53:43.992Z,32.80
2022-12-03T01:56:31.134Z,28.60
2022-12-03T01:59:18.877Z,44.30
2022-12-03T02:02:14.799Z,35.30
2022-12-03T02:05:01.770Z,36.00
2022-12-03T02:07:48.471Z,32.90
2022-12-03T02:10:37.367Z,22.20
2022-12-03T02:13:24.014Z,31.80
2022-12-03T02:16:10.751Z,44.70
2022-12-03T02:18:58.098Z,28.40
2022-12-03T02:21:50.988Z,31.80
2022-12-03T02:24:45.636Z,36.40
2022-12-03T02:27:32.716Z,33.00
2022-12-03T02:30:20.577Z,28.90
2022-12-03T02:33:07.422Z,30.30
2022-12-03T02:35:56.049Z,33.30
2022-12-03T02:38:46.901Z,33.50
2022-12-03T02:41:52.620Z,29.50
2022-12-03T02:44:39.613Z,41.80
2022-12-03T02:47:26.418Z,37.20
2022-12-03T02:50:17.704Z,34.20
2022-12-03T02:53:06.877Z,37.10
2022-12-03T02:55:54.720Z,38.80
2022-12-03T02:58:41.911Z,35.70
2022-12-03T03:01:29.117Z,35.70
2022-12-03T03:04:16.421Z,35.30
2022-12-03T03:07:03.196Z,28.20
2022-12-03T03:09:50.868Z,31.90
2022-12-03T03:12:39.458Z,41.10
2022-12-03T03:15:26.583Z,35.10
2022-12-03T03:18:14.766Z,34.90
2022-12-03T03:21:02.329Z,29.20
2022-12-03T03:23:52.296Z,32.30
2022-12-03T03:26:39.430Z,29.30
2022-12-03T03:29:26.042Z,30.50
2022-12-03T03:32:12.896Z,32.50
2022-12-03T03:34:59.922Z,41.50
2022-12-03T03:37:46.681Z,32.60
2022-12-03T03:40:33.620Z,26.50
2022-12-03T03:43:22.284Z,30.20
2022-12-03T03:46:09.156Z,34.90
2022-12-03T03:48:55.816Z,27.00
2022-12-03T03:51:42.476Z,33.30
2022-12-03T03:54:29.576Z,35.80
2022-12-03T03:57:16.253Z,27.20
2022-12-03T04:00:05.041Z,23.90
2022-12-03T04:02:53.160Z,27.60
2022-12-03T04:05:40.112Z,29.60
2022-12-03T04:08:26.699Z,27.90
2022-12-03T04:11:32.160Z,33.00
2022-12-03T04:14:19.251Z,31.00
2022-12-03T04:17:05.752Z,44.00
2022-12-03T04:19:52.932Z,30.20
2022-12-03T04:22:39.783Z,39.00
2022-12-03T04:25:45.326Z,39.30
2022-12-03T04:28:50.761Z,29.90
2022-12-03T04:31:56.528Z,29.30
2022-12-03T04:35:02.339Z,41.90
2022-12-03T04:37:49.448Z,33.20
2022-12-03T04:40:55.250Z,28.80
2022-12-03T04:44:02.315Z,30.90
2022-12-03T04:46:49.558Z,38.50
2022-12-03T04:49:37.620Z,49.40
2022-12-03T04:52:24.411Z,38.80
2022-12-03T04:55:11.422Z,37.30
2022-12-03T04:57:57.928Z,40.40
2022-12-03T05:00:45.118Z,31.70
2022-12-03T05:03:31.654Z,34.30
2022-12-03T05:06:18.755Z,30.90
2022-12-03T05:09:05.424Z,46.30
2022-12-03T05:11:52.368Z,29.60
2022-12-03T05:14:38.882Z,40.30
2022-12-03T05:17:25.758Z,43.80
2022-12-03T05:20:30.939Z,37.30
2022-12-03T05:23:18.031Z,41.00
2022-12-03T05:26:04.616Z,45.30
2022-12-03T05:28:51.717Z,44.10
2022-12-03T05:31:38.428Z,41.80
2022-12-03T05:34:25.258Z,41.70
2022-12-03T05:37:12.221Z,37.20
2022-12-03T05:39:59.276Z,47.80
2022-12-03T05:42:55.028Z,46.60
2022-12-03T05:45:43.303Z,70.30
2022-12-03T05:48:30.266Z,55.30
2022-12-03T05:51:17.001Z,42.90
2022-12-03T05:54:03.708Z,59.50
2022-12-03T05:56:50.295Z,47.30
2022-12-03T05:59:36.983Z,50.40
2022-12-03T06:02:24.101Z,49.20
2022-12-03T06:05:12.512Z,40.40
2022-12-03T06:07:59.493Z,45.20
2022-12-03T06:10:46.970Z,47.00
2022-12-03T06:13:33.993Z,48.40
2022-12-03T06:16:21.239Z,52.00
2022-12-03T06:19:08.010Z,46.70
2022-12-03T06:21:55.562Z,41.40
2022-12-03T06:24:42.528Z,49.00
2022-12-03T06:27:29.275Z,34.20
2022-12-03T06:30:16.287Z,47.90
2022-12-03T06:33:03.200Z,52.80
2022-12-03T06:35:49.786Z,39.20
2022-12-03T06:38:36.393Z,44.70
2022-12-03T06:41:23.569Z,39.20
2022-12-03T06:44:10.279Z,53.70
2022-12-03T06:46:57.229Z,43.30
2022-12-03T06:49:44.183Z,41.40
2022-12-03T06:52:31.179Z,42.90
2022-12-03T06:55:18.119Z,46.00
2022-12-03T06:58:05.441Z,44.00
2022-12-03T07:00:52.161Z,40.10
2022-12-03T07:03:39.161Z,26.40
2022-12-03T07:06:25.939Z,62.70
2022-12-03T07:09:12.816Z,44.00
2022-12-03T07:11:59.254Z,46.60
2022-12-03T07:14:46.308Z,37.40
2022-12-03T07:17:32.733Z,41.00
2022-12-03T07:20:20.103Z,28.50
2022-12-03T07:23:06.960Z,46.70
2022-12-03T07:25:54.125Z,40.30
2022-12-03T07:28:40.742Z,51.90
2022-12-03T07:31:28.046Z,44.10
2022-12-03T07:34:15.216Z,33.30
2022-12-03T07:37:02.412Z,42.70
2022-12-03T07:39:49.203Z,31.00
2022-12-03T07:42:36.130Z,43.90
2022-12-03T07:45:22.894Z,37.10
2022-12-03T07:48:10.103Z,23.40
2022-12-03T07:50:56.799Z,36.00
2022-12-03T07:53:43.796Z,44.30
2022-12-03T07:56:30.290Z,42.70
2022-12-03T07:59:17.458Z,45.10
2022-12-03T08:02:04.041Z,42.40
2022-12-03T08:04:51.428Z,38.60
2022-12-03T08:07:38.703Z,40.20
2022-12-03T08:10:25.871Z,31.30
2022-12-03T08:13:16.191Z,37.50
2022-12-03T08:16:12.331Z,43.10
2022-12-03T08:18:58.864Z,42.60
2022-12-03T08:21:46.121Z,42.50
2022-12-03T08:24:32.873Z,48.70
2022-12-03T08:27:20.198Z,43.50
2022-12-03T08:30:07.265Z,34.30
2022-12-03T08:32:54.116Z,37.00
2022-12-03T08:35:41.548Z,44.60
2022-12-03T08:41:57.035Z,57.50
2022-12-03T08:44:44.186Z,45.10
2022-12-03T08:47:30.851Z,46.30
2022-12-03T08:50:31.292Z,53.10
2022-12-03T08:53:38.452Z,54.20
2022-12-03T09:00:19.814Z,45.70
2022-12-03T09:03:11.076Z,60.80
2022-12-03T09:05:57.877Z,36.20
2022-12-03T09:08:44.626Z,42.80
2022-12-03T09:11:31.463Z,55.80
2022-12-03T09:14:21.110Z,53.10
2022-12-03T09:17:08.094Z,78.90
2022-12-03T09:19:55.236Z,44.70
2022-12-03T09:22:42.488Z,45.60
2022-12-03T09:25:29.243Z,52.00
2022-12-03T09:28:16.411Z,53.30
2022-12-03T09:31:03.449Z,42.80
2022-12-03T09:33:50.223Z,45.40
2022-12-03T09:36:36.791Z,51.30
2022-12-03T09:39:23.717Z,48.40
2022-12-03T09:42:10.875Z,56.70
2022-12-03T09:44:57.571Z,63.90
2022-12-03T09:47:46.124Z,59.00
2022-12-03T09:50:33.315Z,45.30
2022-12-03T09:53:21.820Z,83.00
2022-12-03T09:56:12.415Z,64.40
2022-12-03T09:58:59.405Z,55.00
2022-12-03T10:01:46.434Z,73.20
2022-12-03T10:04:33.837Z,59.00
2022-12-03T10:07:21.484Z,62.30
2022-12-03T10:10:14.835Z,59.70
2022-12-03T10:13:01.797Z,72.80
2022-12-03T10:15:48.818Z,65.70
2022-12-03T10:18:41.408Z,79.00
2022-12-03T10:21:44.225Z,63.00
2022-12-03T10:24:39.147Z,51.80
2022-12-03T10:30:37.881Z,68.00
2022-12-03T10:33:29.356Z,59.20
2022-12-03T10:36:26.788Z,73.50
2022-12-03T10:39:16.935Z,56.70
2022-12-03T10:42:16.719Z,61.80
2022-12-03T10:45:20.809Z,67.20
2022-12-03T10:48:15.835Z,67.50
2022-12-03T10:51:02.206Z,55.40
2022-12-03T10:53:49.853Z,116.90
2022-12-03T10:56:36.500Z,52.80
2022-12-03T10:59:28.809Z,65.80
2022-12-03T11:05:33.550Z,52.10
2022-12-03T11:08:24.735Z,67.60
2022-12-03T11:11:20.079Z,90.80
2022-12-03T11:14:06.703Z,74.50
2022-12-03T11:16:53.919Z,91.10
2022-12-03T11:19:40.527Z,95.00
2022-12-03T11:22:29.432Z,67.70
2022-12-03T11:25:25.572Z,61.50
2022-12-03T11:28:15.409Z,86.60
2022-12-03T11:31:10.058Z,74.90
2022-12-03T11:34:16.400Z,91.00
2022-12-03T11:37:12.490Z,103.50
2022-12-03T11:40:03.610Z,93.90
2022-12-03T11:42:50.632Z,97.70
2022-12-03T11:45:38.546Z,83.70
2022-12-03T11:48:25.302Z,86.20
2022-12-03T11:51:14.326Z,82.20
2022-12-03T11:54:03.441Z,79.30
2022-12-03T12:00:19.666Z,87.60
2022-12-03T12:03:40.709Z,74.50
2022-12-03T12:06:43.043Z,73.20
2022-12-03T12:09:50.189Z,90.90
2022-12-03T12:12:54.379Z,75.60
2022-12-03T12:15:52.985Z,91.90
2022-12-03T12:18:39.818Z,71.50
2022-12-03T12:22:16.853Z,67.20
2022-12-03T12:25:27.011Z,104.60
2022-12-03T12:28:13.801Z,99.80
2022-12-03T12:31:05.586Z,104.70
2022-12-03T12:37:36.112Z,93.20
2022-12-03T12:40:28.130Z,99.10
2022-12-03T12:43:30.740Z,94.00
2022-12-03T12:46:46.509Z,71.90
2022-12-03T12:49:27.091Z,72.80
2022-12-03T12:55:17.984Z,72.80
2022-12-03T12:58:23.856Z,107.20
2022-12-03T13:01:23.618Z,70.10
2022-12-03T13:04:15.178Z,77.40
2022-12-03T13:07:02.256Z,84.10
2022-12-03T13:09:56.883Z,93.70
2022-12-03T13:12:44.565Z,94.60
2022-12-03T13:15:51.738Z,100.70
2022-12-03T13:18:45.634Z,89.20
2022-12-03T13:21:32.466Z,90.30
2022-12-03T13:28:18.752Z,77.50
2022-12-03T13:31:23.333Z,93.00
2022-12-03T13:34:19.266Z,104.20
2022-12-03T13:37:20.126Z,83.00
2022-12-03T13:40:25.625Z,89.90
2022-12-03T13:43:14.526Z,93.70
2022-12-03T13:49:47.277Z,96.40
2022-12-03T13:52:34.561Z,100.20
2022-12-03T13:55:29.313Z,103.60
2022-12-03T13:58:16.283Z,66.50
2022-12-03T14:01:02.948Z,67.80
2022-12-03T14:03:50.000Z,79.20
2022-12-03T14:06:38.632Z,96.80
2022-12-03T14:09:25.857Z,84.80
2022-12-03T14:12:29.076Z,53.60
2022-12-03T14:15:15.814Z,74.40
2022-12-03T14:18:08.928Z,62.90
2022-12-03T14:21:00.793Z,70.40
2022-12-03T14:23:47.717Z,72.60
2022-12-03T14:26:40.655Z,72.50
2022-12-03T14:29:29.519Z,61.90
2022-12-03T14:32:36.434Z,82.60
2022-12-03T14:35:23.462Z,78.90
2022-12-03T14:38:10.138Z,62.60
2022-12-03T14:40:57.225Z,65.00
2022-12-03T14:43:44.067Z,83.30
2022-12-03T14:46:31.882Z,86.70
2022-12-03T14:49:18.791Z,86.30
2022-12-03T14:52:11.333Z,81.80
2022-12-03T14:54:58.569Z,51.40
2022-12-03T14:57:45.640Z,74.30
2022-12-03T15:00:32.601Z,91.40
2022-12-03T15:03:19.601Z,69.50
2022-12-03T15:06:06.335Z,100.70
2022-12-03T15:08:53.243Z,81.10
2022-12-03T15:11:45.927Z,61.50
2022-12-03T15:14:47.733Z,44.30
2022-12-03T15:17:35.934Z,48.00
2022-12-03T15:20:22.903Z,64.90
2022-12-03T15:23:14.069Z,81.50
2022-12-03T15:26:01.343Z,50.10
2022-12-03T15:28:48.550Z,55.20
2022-12-03T15:31:35.807Z,54.60
2022-12-03T15:34:34.171Z,62.30
2022-12-03T15:43:40.214Z,55.80
2022-12-03T15:46:28.124Z,80.10
2022-12-03T15:55:21.431Z,82.90
2022-12-03T15:58:08.329Z,68.50
2022-12-03T16:00:55.827Z,68.80
2022-12-03T16:06:51.241Z,71.80
2022-12-03T16:09:39.354Z,76.40
2022-12-03T16:12:39.533Z,76.60
2022-12-03T16:15:35.385Z,63.10
2022-12-03T16:18:22.404Z,78.50
2022-12-03T16:21:09.183Z,64.90
2022-12-03T16:23:56.267Z,75.30
2022-12-03T16:26:43.194Z,90.40
2022-12-03T16:29:35.841Z,60.10
2022-12-03T16:32:34.842Z,72.50
2022-12-03T16:35:22.365Z,76.20
2022-12-03T16:38:22.942Z,48.60
2022-12-03T16:41:11.868Z,58.80
2022-12-03T16:44:07.635Z,58.70
2022-12-03T16:50:27.547Z,59.80
2022-12-03T16:56:23.069Z,60.40
2022-12-03T16:59:09.760Z,71.00
2022-12-03T17:01:57.141Z,56.80
2022-12-03T17:04:43.974Z,57.90
2022-12-03T17:07:30.679Z,55.70
2022-12-03T17:10:17.372Z,58.10
2022-12-03T17:13:09.776Z,64.10
2022-12-03T17:15:57.373Z,53.00
2022-12-03T17:18:44.606Z,63.40
2022-12-03T17:21:34.823Z,48.60
2022-12-03T17:24:22.286Z,59.00
2022-12-03T17:27:09.443Z,47.20
2022-12-03T17:29:56.316Z,44.70
2022-12-03T17:32:43.358Z,57.20
2022-12-03T17:35:30.609Z,62.70
2022-12-03T17:38:18.537Z,52.30
2022-12-03T17:41:07.360Z,61.70
2022-12-03T17:43:54.117Z,60.20
2022-12-03T17:46:41.027Z,68.50
2022-12-03T17:49:31.454Z,49.30
2022-12-03T17:52:18.624Z,47.80
2022-12-03T17:55:12.836Z,55.70
2022-12-03T17:58:03.940Z,69.30
2022-12-03T18:00:50.858Z,56.60
2022-12-03T18:03:37.776Z,61.00
2022-12-03T18:06:26.457Z,55.90
2022-12-03T18:09:13.379Z,58.90
2022-12-03T18:12:00.438Z,61.80
2022-12-03T18:14:47.027Z,61.20
2022-12-03T18:17:34.349Z,60.20
2022-12-03T18:20:21.544Z,61.80
2022-12-03T18:23:08.481Z,71.80
2022-12-03T18:25:55.153Z,65.70
2022-12-03T18:28:42.280Z,36.60
2022-12-03T18:31:29.499Z,55.00
2022-12-03T18:34:16.197Z,68.40
2022-12-03T18:37:02.857Z,46.40
2022-12-03T18:39:50.028Z,69.20
2022-12-03T18:42:36.523Z,80.00
2022-12-03T18:45:23.657Z,61.50
2022-12-03T18:48:17.746Z,71.40
2022-12-03T18:51:09.205Z,63.90
2022-12-03T18:53:56.994Z,90.90
2022-12-03T18:56:43.746Z,74.50
2022-12-03T18:59:30.222Z,72.60
2022-12-03T19:02:46.027Z,61.00
2022-12-03T19:05:25.047Z,93.10
2022-12-03T19:08:15.061Z,81.50
2022-12-03T19:11:02.088Z,68.10
2022-12-03T19:13:49.126Z,73.80
2022-12-03T19:16:36.245Z,84.10
2022-12-03T19:19:27.325Z,87.90
2022-12-03T19:22:13.990Z,61.00
2022-12-03T19:25:00.853Z,85.70
2022-12-03T19:27:50.080Z,85.10
2022-12-03T19:30:37.137Z,81.80
2022-12-03T19:33:28.499Z,75.30
2022-12-03T19:36:33.492Z,81.60
2022-12-03T19:39:20.241Z,68.20
2022-12-03T19:42:06.999Z,64.50
2022-12-03T19:44:53.754Z,57.00
2022-12-03T19:47:40.495Z,64.40
2022-12-03T19:50:27.347Z,45.70
2022-12-03T19:53:13.936Z,51.50
2022-12-03T19:56:04.894Z,57.80
2022-12-03T19:58:53.989Z,52.40
2022-12-03T20:01:43.150Z,79.20
2022-12-03T20:04:30.345Z,67.50
2022-12-03T20:07:17.169Z,61.80
2022-12-03T20:10:03.850Z,65.90
2022-12-03T20:12:50.836Z,61.80
2022-12-03T20:15:37.484Z,54.40
2022-12-03T20:18:24.413Z,53.80
2022-12-03T20:21:11.703Z,48.60
2022-12-03T20:23:58.867Z,61.60
2022-12-03T20:26:45.762Z,61.00
2022-12-03T20:29:32.554Z,55.40
2022-12-03T20:32:19.312Z,52.70
2022-12-03T20:35:06.075Z,44.00
2022-12-03T20:37:52.683Z,65.80
2022-12-03T20:40:39.455Z,58.10
2022-12-03T20:43:25.925Z,50.00
2022-12-03T20:46:20.443Z,49.40
2022-12-03T20:49:07.258Z,51.00
2022-12-03T20:51:54.251Z,57.50
2022-12-03T20:54:40.714Z,50.10
2022-12-03T20:57:27.805Z,58.10
2022-12-03T21:00:14.754Z,59.90
2022-12-03T21:03:01.651Z,65.10
2022-12-03T21:05:48.346Z,59.70
2022-12-03T21:08:41.419Z,36.90
2022-12-03T21:11:32.301Z,48.50
2022-12-03T21:14:25.145Z,48.30
2022-12-03T21:17:16.439Z,57.70
2022-12-03T21:20:03.616Z,40.00
2022-12-03T21:22:50.490Z,44.40
2022-12-03T21:25:37.343Z,41.80
2022-12-03T21:28:24.126Z,43.90
2022-12-03T21:31:12.321Z,43.50
2022-12-03T21:33:58.859Z,42.50
2022-12-03T21:36:45.407Z,61.10
2022-12-03T21:39:32.180Z,54.60
2022-12-03T21:42:36.498Z,53.60
2022-12-03T21:45:25.263Z,47.30
2022-12-03T21:48:12.041Z,59.20
2022-12-03T21:50:59.357Z,50.50
2022-12-03T21:53:45.910Z,48.40
2022-12-03T21:56:33.203Z,51.00
2022-12-03T21:59:19.981Z,50.90
2022-12-03T22:02:06.720Z,56.00
2022-12-03T22:04:53.806Z,47.40
2022-12-03T22:07:41.013Z,43.80
2022-12-03T22:10:27.613Z,37.90
2022-12-03T22:13:13.985Z,44.70
2022-12-03T22:16:03.768Z,51.80
2022-12-03T22:18:50.196Z,44.80
2022-12-03T22:21:36.890Z,52.00
2022-12-03T22:24:24.314Z,38.40
2022-12-03T22:27:10.978Z,43.60
2022-12-03T22:29:57.674Z,52.50
2022-12-03T22:32:44.676Z,47.20
2022-12-03T22:35:31.332Z,42.90
2022-12-03T22:38:17.976Z,45.50
2022-12-03T22:41:05.558Z,44.70
2022-12-03T22:43:52.329Z,50.10
2022-12-03T22:46:38.835Z,53.70
2022-12-03T22:49:25.606Z,49.10
2022-12-03T22:52:12.216Z,40.40
2022-12-03T22:54:58.845Z,41.10
2022-12-03T22:57:45.272Z,55.00
2022-12-03T23:00:33.774Z,34.70
2022-12-03T23:03:20.787Z,41.70
2022-12-03T23:06:11.295Z,43.30
2022-12-03T23:08:58.654Z,42.80
2022-12-03T23:11:45.703Z,57.00
2022-12-03T23:14:32.266Z,56.40
2022-12-03T23:17:19.044Z,50.70
2022-12-03T23:20:06.034Z,49.90
2022-12-03T23:22:53.303Z,49.10
2022-12-03T23:25:40.030Z,52.10
2022-12-03T23:28:27.886Z,49.80
2022-12-03T23:31:16.878Z,49.00
2022-12-03T23:34:03.536Z,52.50
2022-12-03T23:36:50.055Z,42.00
2022-12-03T23:39:36.720Z,63.00
2022-12-03T23:42:23.645Z,48.20
2022-12-03T23:45:10.266Z,47.40
2022-12-03T23:47:58.307Z,50.30
2022-12-03T23:50:45.297Z,45.10
2022-12-03T23:53:31.985Z,33.60
2022-12-03T23:56:20.674Z,42.20
2022-12-03T23:59:07.577Z,41.40
